sensor_id;sensor_type;location;lat;lon;timestamp;P1;durP1;ratioP1;P2;durP2;ratioP2
7080;SDS011;3582;51.506;11.948;2022-12-18T00:00:40;69.67;;;35.97;;
7080;SDS011;3582;51.506;11.948;2022-12-18T00:03:06;69.97;;;37.17;;
7080;SDS011;3582;51.506;11.948;2022-12-18T00:05:32;56.85;;;35.15;;
7080;SDS011;3582;51.506;11.948;2022-12-18T00:07:58;65.57;;;34.53;;
7080;SDS011;3582;51.506;11.948;2022-12-18T00:10:24;71.90;;;38.07;;
7080;SDS011;3582;51.506;11.948;2022-12-18T00:12:50;74.00;;;37.90;;
7080;SDS011;3582;51.506;11.948;2022-12-18T00:15:16;67.60;;;39.07;;
7080;SDS011;3582;51.506;11.948;2022-12-18T00:17:42;73.80;;;35.47;;
7080;SDS011;3582;51.506;11.948;2022-12-18T00:20:08;65.93;;;39.17;;
7080;SDS011;3582;51.506;11.948;2022-12-18T00:22:34;66.72;;;34.95;;
7080;SDS011;3582;51.506;11.948;2022-12-18T00:25:00;62.77;;;37.30;;
7080;SDS011;3582;51.506;11.948;2022-12-18T00:27:26;76.18;;;38.63;;
7080;SDS011;3582;51.506;11.948;2022-12-18T00:29:52;77.07;;;40.07;;
7080;SDS011;3582;51.506;11.948;2022-12-18T00:32:18;78.05;;;38.78;;
7080;SDS011;3582;51.506;11.948;2022-12-18T00:34:44;80.20;;;39.88;;
7080;SDS011;3582;51.506;11.948;2022-12-18T00:37:10;83.05;;;37.95;;
7080;SDS011;3582;51.506;11.948;2022-12-18T00:39:36;82.30;;;38.57;;
7080;SDS011;3582;51.506;11.948;2022-12-18T00:42:02;74.53;;;36.20;;
7080;SDS011;3582;51.506;11.948;2022-12-18T00:44:46;91.05;;;39.10;;
7080;SDS011;3582;51.506;11.948;2022-12-18T00:47:12;76.25;;;41.92;;
7080;SDS011;3582;51.506;11.948;2022-12-18T00:49:38;70.50;;;37.97;;
7080;SDS011;3582;51.506;11.948;2022-12-18T00:52:04;85.38;;;37.20;;
7080;SDS011;3582;51.506;11.948;2022-12-18T00:54:30;73.97;;;39.60;;
7080;SDS011;3582;51.506;11.948;2022-12-18T00:56:56;80.45;;;39.25;;
7080;SDS011;3582;51.506;11.948;2022-12-18T00:59:22;83.77;;;33.57;;
7080;SDS011;3582;51.506;11.948;2022-12-18T01:01:48;67.40;;;36.03;;
7080;SDS011;3582;51.506;11.948;2022-12-18T01:04:14;67.35;;;33.42;;
7080;SDS011;3582;51.506;11.948;2022-12-18T01:06:40;68.53;;;33.28;;
7080;SDS011;3582;51.506;11.948;2022-12-18T01:09:06;55.55;;;31.02;;
7080;SDS011;3582;51.506;11.948;2022-12-18T01:11:32;60.50;;;33.03;;
7080;SDS011;3582;51.506;11.948;2022-12-18T01:13:58;51.20;;;30.13;;
7080;SDS011;3582;51.506;11.948;2022-12-18T01:16:24;57.40;;;32.80;;
7080;SDS011;3582;51.506;11.948;2022-12-18T01:18:53;59.63;;;31.15;;
7080;SDS011;3582;51.506;11.948;2022-12-18T01:21:19;57.22;;;32.38;;
7080;SDS011;3582;51.506;11.948;2022-12-18T01:23:46;58.30;;;32.97;;
7080;SDS011;3582;51.506;11.948;2022-12-18T01:26:13;56.38;;;30.17;;
7080;SDS011;3582;51.506;11.948;2022-12-18T01:28:40;57.40;;;28.75;;
7080;SDS011;3582;51.506;11.948;2022-12-18T01:31:25;122.15;;;34.58;;
7080;SDS011;3582;51.506;11.948;2022-12-18T01:33:52;61.25;;;34.85;;
7080;SDS011;3582;51.506;11.948;2022-12-18T01:38:47;61.95;;;34.65;;
7080;SDS011;3582;51.506;11.948;2022-12-18T01:41:14;81.03;;;35.65;;
7080;SDS011;3582;51.506;11.948;2022-12-18T01:43:58;61.33;;;32.08;;
7080;SDS011;3582;51.506;11.948;2022-12-18T01:46:24;58.83;;;32.53;;
7080;SDS011;3582;51.506;11.948;2022-12-18T01:48:53;68.50;;;36.95;;
7080;SDS011;3582;51.506;11.948;2022-12-18T01:51:20;75.90;;;37.97;;
7080;SDS011;3582;51.506;11.948;2022-12-18T01:53:47;57.80;;;33.75;;
7080;SDS011;3582;51.506;11.948;2022-12-18T01:56:14;62.05;;;32.60;;
7080;SDS011;3582;51.506;11.948;2022-12-18T02:01:10;69.45;;;33.88;;
7080;SDS011;3582;51.506;11.948;2022-12-18T02:03:36;70.90;;;33.17;;
7080;SDS011;3582;51.506;11.948;2022-12-18T02:11:02;62.83;;;34.07;;
7080;SDS011;3582;51.506;11.948;2022-12-18T02:16:15;71.07;;;33.60;;
7080;SDS011;3582;51.506;11.948;2022-12-18T02:18:45;62.80;;;32.28;;
7080;SDS011;3582;51.506;11.948;2022-12-18T02:21:26;55.40;;;32.75;;
7080;SDS011;3582;51.506;11.948;2022-12-18T02:24:17;77.95;;;33.53;;
7080;SDS011;3582;51.506;11.948;2022-12-18T02:26:47;80.68;;;32.40;;
7080;SDS011;3582;51.506;11.948;2022-12-18T02:29:18;59.63;;;31.80;;
7080;SDS011;3582;51.506;11.948;2022-12-18T02:31:48;78.25;;;34.95;;
7080;SDS011;3582;51.506;11.948;2022-12-18T02:34:15;75.70;;;35.53;;
7080;SDS011;3582;51.506;11.948;2022-12-18T02:36:42;73.47;;;32.72;;
7080;SDS011;3582;51.506;11.948;2022-12-18T02:39:10;71.53;;;32.08;;
7080;SDS011;3582;51.506;11.948;2022-12-18T02:41:36;55.28;;;30.70;;
7080;SDS011;3582;51.506;11.948;2022-12-18T02:44:06;68.25;;;33.53;;
7080;SDS011;3582;51.506;11.948;2022-12-18T02:46:34;57.88;;;34.17;;
7080;SDS011;3582;51.506;11.948;2022-12-18T02:56:55;64.03;;;32.80;;
7080;SDS011;3582;51.506;11.948;2022-12-18T02:59:25;58.78;;;29.38;;
7080;SDS011;3582;51.506;11.948;2022-12-18T03:02:04;62.55;;;31.48;;
7080;SDS011;3582;51.506;11.948;2022-12-18T03:04:38;70.60;;;33.13;;
7080;SDS011;3582;51.506;11.948;2022-12-18T03:07:06;59.58;;;35.42;;
7080;SDS011;3582;51.506;11.948;2022-12-18T03:09:35;63.65;;;30.40;;
7080;SDS011;3582;51.506;11.948;2022-12-18T03:15:13;72.00;;;33.08;;
7080;SDS011;3582;51.506;11.948;2022-12-18T03:17:36;65.82;;;33.83;;
7080;SDS011;3582;51.506;11.948;2022-12-18T03:20:06;80.03;;;36.13;;
7080;SDS011;3582;51.506;11.948;2022-12-18T03:22:33;64.53;;;32.92;;
7080;SDS011;3582;51.506;11.948;2022-12-18T03:25:01;66.07;;;32.30;;
7080;SDS011;3582;51.506;11.948;2022-12-18T03:27:28;69.32;;;31.05;;
7080;SDS011;3582;51.506;11.948;2022-12-18T03:29:58;55.67;;;31.15;;
7080;SDS011;3582;51.506;11.948;2022-12-18T03:32:33;58.10;;;32.63;;
7080;SDS011;3582;51.506;11.948;2022-12-18T03:34:59;62.92;;;30.27;;
7080;SDS011;3582;51.506;11.948;2022-12-18T03:37:26;62.88;;;31.23;;
7080;SDS011;3582;51.506;11.948;2022-12-18T03:39:52;65.88;;;33.60;;
7080;SDS011;3582;51.506;11.948;2022-12-18T03:42:25;63.35;;;33.38;;
7080;SDS011;3582;51.506;11.948;2022-12-18T03:47:29;71.82;;;33.67;;
7080;SDS011;3582;51.506;11.948;2022-12-18T03:50:10;68.90;;;33.03;;
7080;SDS011;3582;51.506;11.948;2022-12-18T03:55:03;60.23;;;32.60;;
7080;SDS011;3582;51.506;11.948;2022-12-18T03:57:31;55.67;;;29.25;;
7080;SDS011;3582;51.506;11.948;2022-12-18T04:00:08;50.20;;;29.55;;
7080;SDS011;3582;51.506;11.948;2022-12-18T04:02:35;47.90;;;29.40;;
7080;SDS011;3582;51.506;11.948;2022-12-18T04:05:03;63.60;;;29.15;;
7080;SDS011;3582;51.506;11.948;2022-12-18T04:07:30;55.03;;;31.92;;
7080;SDS011;3582;51.506;11.948;2022-12-18T04:09:56;55.20;;;27.67;;
7080;SDS011;3582;51.506;11.948;2022-12-18T04:12:24;55.33;;;30.63;;
7080;SDS011;3582;51.506;11.948;2022-12-18T04:14:51;64.30;;;29.58;;
7080;SDS011;3582;51.506;11.948;2022-12-18T04:17:17;47.30;;;27.70;;
7080;SDS011;3582;51.506;11.948;2022-12-18T04:19:43;52.97;;;28.55;;
7080;SDS011;3582;51.506;11.948;2022-12-18T04:22:10;73.47;;;31.02;;
7080;SDS011;3582;51.506;11.948;2022-12-18T04:24:36;60.75;;;27.85;;
7080;SDS011;3582;51.506;11.948;2022-12-18T04:27:02;52.92;;;29.15;;
7080;SDS011;3582;51.506;11.948;2022-12-18T04:29:28;51.35;;;29.92;;
7080;SDS011;3582;51.506;11.948;2022-12-18T04:31:54;56.58;;;28.88;;
7080;SDS011;3582;51.506;11.948;2022-12-18T04:34:20;45.35;;;26.83;;
7080;SDS011;3582;51.506;11.948;2022-12-18T04:36:46;57.97;;;27.85;;
7080;SDS011;3582;51.506;11.948;2022-12-18T04:39:12;57.97;;;30.02;;
7080;SDS011;3582;51.506;11.948;2022-12-18T04:41:38;68.20;;;28.90;;
7080;SDS011;3582;51.506;11.948;2022-12-18T04:44:04;51.80;;;28.10;;
7080;SDS011;3582;51.506;11.948;2022-12-18T04:46:30;54.83;;;32.83;;
7080;SDS011;3582;51.506;11.948;2022-12-18T04:48:56;60.97;;;29.37;;
7080;SDS011;3582;51.506;11.948;2022-12-18T04:51:25;54.55;;;29.40;;
7080;SDS011;3582;51.506;11.948;2022-12-18T04:53:51;53.72;;;31.75;;
7080;SDS011;3582;51.506;11.948;2022-12-18T04:56:17;51.60;;;28.38;;
7080;SDS011;3582;51.506;11.948;2022-12-18T04:58:44;53.97;;;28.50;;
7080;SDS011;3582;51.506;11.948;2022-12-18T05:01:10;61.28;;;28.35;;
7080;SDS011;3582;51.506;11.948;2022-12-18T05:03:37;50.88;;;28.77;;
7080;SDS011;3582;51.506;11.948;2022-12-18T05:06:03;45.30;;;28.17;;
7080;SDS011;3582;51.506;11.948;2022-12-18T05:08:30;46.80;;;26.92;;
7080;SDS011;3582;51.506;11.948;2022-12-18T05:11:29;60.47;;;31.33;;
7080;SDS011;3582;51.506;11.948;2022-12-18T05:13:48;55.75;;;30.08;;
7080;SDS011;3582;51.506;11.948;2022-12-18T05:16:14;54.63;;;30.15;;
7080;SDS011;3582;51.506;11.948;2022-12-18T05:18:40;65.38;;;30.08;;
7080;SDS011;3582;51.506;11.948;2022-12-18T05:21:07;57.17;;;30.30;;
7080;SDS011;3582;51.506;11.948;2022-12-18T05:23:33;56.13;;;27.30;;
7080;SDS011;3582;51.506;11.948;2022-12-18T05:26:00;57.33;;;29.30;;
7080;SDS011;3582;51.506;11.948;2022-12-18T05:28:26;64.45;;;28.77;;
7080;SDS011;3582;51.506;11.948;2022-12-18T05:30:54;49.65;;;29.35;;
7080;SDS011;3582;51.506;11.948;2022-12-18T05:33:21;67.53;;;34.35;;
7080;SDS011;3582;51.506;11.948;2022-12-18T05:35:54;50.22;;;26.90;;
7080;SDS011;3582;51.506;11.948;2022-12-18T05:38:21;48.17;;;27.98;;
7080;SDS011;3582;51.506;11.948;2022-12-18T05:40:48;51.03;;;25.83;;
7080;SDS011;3582;51.506;11.948;2022-12-18T05:43:14;58.05;;;27.83;;
7080;SDS011;3582;51.506;11.948;2022-12-18T05:45:41;50.83;;;30.35;;
7080;SDS011;3582;51.506;11.948;2022-12-18T05:48:07;51.28;;;25.55;;
7080;SDS011;3582;51.506;11.948;2022-12-18T05:50:36;61.13;;;31.02;;
7080;SDS011;3582;51.506;11.948;2022-12-18T05:53:03;44.35;;;25.23;;
7080;SDS011;3582;51.506;11.948;2022-12-18T05:55:32;60.50;;;28.50;;
7080;SDS011;3582;51.506;11.948;2022-12-18T05:57:58;53.13;;;29.83;;
7080;SDS011;3582;51.506;11.948;2022-12-18T06:00:24;55.20;;;29.80;;
7080;SDS011;3582;51.506;11.948;2022-12-18T06:02:50;48.17;;;28.33;;
7080;SDS011;3582;51.506;11.948;2022-12-18T06:05:16;51.37;;;28.30;;
7080;SDS011;3582;51.506;11.948;2022-12-18T06:07:42;59.55;;;28.38;;
7080;SDS011;3582;51.506;11.948;2022-12-18T06:10:08;52.07;;;26.57;;
7080;SDS011;3582;51.506;11.948;2022-12-18T06:12:34;59.75;;;33.95;;
7080;SDS011;3582;51.506;11.948;2022-12-18T06:15:00;54.53;;;29.57;;
7080;SDS011;3582;51.506;11.948;2022-12-18T06:17:30;43.75;;;27.73;;
7080;SDS011;3582;51.506;11.948;2022-12-18T06:19:56;55.35;;;24.77;;
7080;SDS011;3582;51.506;11.948;2022-12-18T06:22:22;52.40;;;27.58;;
7080;SDS011;3582;51.506;11.948;2022-12-18T06:24:48;62.33;;;27.23;;
7080;SDS011;3582;51.506;11.948;2022-12-18T06:27:14;60.53;;;28.23;;
7080;SDS011;3582;51.506;11.948;2022-12-18T06:29:40;50.17;;;27.60;;
7080;SDS011;3582;51.506;11.948;2022-12-18T06:32:06;52.58;;;27.30;;
7080;SDS011;3582;51.506;11.948;2022-12-18T06:34:32;54.28;;;29.17;;
7080;SDS011;3582;51.506;11.948;2022-12-18T06:36:59;58.85;;;29.55;;
7080;SDS011;3582;51.506;11.948;2022-12-18T06:39:27;59.90;;;28.38;;
7080;SDS011;3582;51.506;11.948;2022-12-18T06:41:53;54.30;;;30.02;;
7080;SDS011;3582;51.506;11.948;2022-12-18T06:44:19;72.37;;;26.90;;
7080;SDS011;3582;51.506;11.948;2022-12-18T06:46:45;40.80;;;24.83;;
7080;SDS011;3582;51.506;11.948;2022-12-18T06:49:11;65.72;;;31.77;;
7080;SDS011;3582;51.506;11.948;2022-12-18T06:51:37;48.28;;;25.52;;
7080;SDS011;3582;51.506;11.948;2022-12-18T06:54:03;45.17;;;26.23;;
7080;SDS011;3582;51.506;11.948;2022-12-18T06:56:29;45.90;;;24.67;;
7080;SDS011;3582;51.506;11.948;2022-12-18T06:58:55;45.90;;;26.00;;
7080;SDS011;3582;51.506;11.948;2022-12-18T07:01:21;67.80;;;28.88;;
7080;SDS011;3582;51.506;11.948;2022-12-18T07:03:51;46.17;;;24.60;;
7080;SDS011;3582;51.506;11.948;2022-12-18T07:06:18;55.13;;;27.38;;
7080;SDS011;3582;51.506;11.948;2022-12-18T07:08:45;43.33;;;25.90;;
7080;SDS011;3582;51.506;11.948;2022-12-18T07:11:11;52.28;;;31.40;;
7080;SDS011;3582;51.506;11.948;2022-12-18T07:13:37;53.05;;;27.63;;
7080;SDS011;3582;51.506;11.948;2022-12-18T07:16:05;51.30;;;26.90;;
7080;SDS011;3582;51.506;11.948;2022-12-18T07:18:31;37.00;;;22.15;;
7080;SDS011;3582;51.506;11.948;2022-12-18T07:20:57;37.33;;;24.95;;
7080;SDS011;3582;51.506;11.948;2022-12-18T07:23:23;42.63;;;24.77;;
7080;SDS011;3582;51.506;11.948;2022-12-18T07:25:49;43.55;;;23.13;;
7080;SDS011;3582;51.506;11.948;2022-12-18T07:28:14;57.77;;;26.60;;
7080;SDS011;3582;51.506;11.948;2022-12-18T07:30:40;48.50;;;25.70;;
7080;SDS011;3582;51.506;11.948;2022-12-18T07:33:06;45.80;;;26.73;;
7080;SDS011;3582;51.506;11.948;2022-12-18T07:35:33;49.15;;;25.02;;
7080;SDS011;3582;51.506;11.948;2022-12-18T07:38:06;52.67;;;28.42;;
7080;SDS011;3582;51.506;11.948;2022-12-18T07:40:32;38.97;;;21.90;;
7080;SDS011;3582;51.506;11.948;2022-12-18T07:42:58;50.17;;;25.77;;
7080;SDS011;3582;51.506;11.948;2022-12-18T07:45:23;44.35;;;23.20;;
7080;SDS011;3582;51.506;11.948;2022-12-18T07:47:49;51.90;;;27.30;;
7080;SDS011;3582;51.506;11.948;2022-12-18T07:50:15;47.07;;;26.60;;
7080;SDS011;3582;51.506;11.948;2022-12-18T07:52:41;48.40;;;25.70;;
7080;SDS011;3582;51.506;11.948;2022-12-18T07:55:07;42.13;;;24.60;;
7080;SDS011;3582;51.506;11.948;2022-12-18T07:57:33;45.00;;;24.95;;
7080;SDS011;3582;51.506;11.948;2022-12-18T07:59:59;44.23;;;23.47;;
7080;SDS011;3582;51.506;11.948;2022-12-18T08:02:25;46.90;;;24.40;;
7080;SDS011;3582;51.506;11.948;2022-12-18T08:04:51;44.90;;;25.00;;
7080;SDS011;3582;51.506;11.948;2022-12-18T08:07:17;45.27;;;25.40;;
7080;SDS011;3582;51.506;11.948;2022-12-18T08:09:43;41.78;;;26.08;;
7080;SDS011;3582;51.506;11.948;2022-12-18T08:12:09;48.47;;;24.70;;
7080;SDS011;3582;51.506;11.948;2022-12-18T08:14:35;53.17;;;25.00;;
7080;SDS011;3582;51.506;11.948;2022-12-18T08:17:01;45.58;;;26.52;;
7080;SDS011;3582;51.506;11.948;2022-12-18T08:19:27;48.50;;;21.90;;
7080;SDS011;3582;51.506;11.948;2022-12-18T08:21:53;49.87;;;26.43;;
7080;SDS011;3582;51.506;11.948;2022-12-18T08:24:19;47.47;;;25.20;;
7080;SDS011;3582;51.506;11.948;2022-12-18T08:26:45;42.73;;;27.40;;
7080;SDS011;3582;51.506;11.948;2022-12-18T08:29:11;53.22;;;28.90;;
7080;SDS011;3582;51.506;11.948;2022-12-18T08:31:37;56.20;;;28.05;;
7080;SDS011;3582;51.506;11.948;2022-12-18T08:34:03;69.25;;;25.00;;
7080;SDS011;3582;51.506;11.948;2022-12-18T08:36:29;37.33;;;22.60;;
7080;SDS011;3582;51.506;11.948;2022-12-18T08:38:55;42.53;;;25.17;;
7080;SDS011;3582;51.506;11.948;2022-12-18T08:41:22;54.20;;;26.05;;
7080;SDS011;3582;51.506;11.948;2022-12-18T08:43:48;49.05;;;25.88;;
7080;SDS011;3582;51.506;11.948;2022-12-18T08:46:37;49.88;;;26.38;;
7080;SDS011;3582;51.506;11.948;2022-12-18T08:49:03;46.08;;;28.23;;
7080;SDS011;3582;51.506;11.948;2022-12-18T08:51:29;75.07;;;36.42;;
7080;SDS011;3582;51.506;11.948;2022-12-18T08:53:55;56.47;;;33.55;;
7080;SDS011;3582;51.506;11.948;2022-12-18T08:56:21;53.63;;;33.33;;
7080;SDS011;3582;51.506;11.948;2022-12-18T08:58:47;56.08;;;32.20;;
7080;SDS011;3582;51.506;11.948;2022-12-18T09:01:13;48.80;;;26.83;;
7080;SDS011;3582;51.506;11.948;2022-12-18T09:03:39;39.75;;;25.38;;
7080;SDS011;3582;51.506;11.948;2022-12-18T09:06:05;44.83;;;30.25;;
7080;SDS011;3582;51.506;11.948;2022-12-18T09:08:34;48.83;;;27.38;;
7080;SDS011;3582;51.506;11.948;2022-12-18T09:11:01;40.80;;;27.17;;
7080;SDS011;3582;51.506;11.948;2022-12-18T09:13:27;43.30;;;25.38;;
7080;SDS011;3582;51.506;11.948;2022-12-18T09:15:54;46.67;;;26.55;;
7080;SDS011;3582;51.506;11.948;2022-12-18T09:18:21;48.50;;;27.35;;
7080;SDS011;3582;51.506;11.948;2022-12-18T09:20:47;48.88;;;24.70;;
7080;SDS011;3582;51.506;11.948;2022-12-18T09:23:15;44.25;;;28.30;;
7080;SDS011;3582;51.506;11.948;2022-12-18T09:25:41;45.13;;;27.50;;
7080;SDS011;3582;51.506;11.948;2022-12-18T09:28:15;45.03;;;24.75;;
7080;SDS011;3582;51.506;11.948;2022-12-18T09:30:42;58.88;;;29.67;;
7080;SDS011;3582;51.506;11.948;2022-12-18T09:33:09;57.95;;;27.15;;
7080;SDS011;3582;51.506;11.948;2022-12-18T09:35:38;57.90;;;31.88;;
7080;SDS011;3582;51.506;11.948;2022-12-18T09:38:04;43.55;;;28.80;;
7080;SDS011;3582;51.506;11.948;2022-12-18T09:40:33;53.30;;;31.35;;
7080;SDS011;3582;51.506;11.948;2022-12-18T09:43:00;49.65;;;29.23;;
7080;SDS011;3582;51.506;11.948;2022-12-18T09:45:30;47.20;;;30.77;;
7080;SDS011;3582;51.506;11.948;2022-12-18T09:47:57;52.47;;;29.45;;
7080;SDS011;3582;51.506;11.948;2022-12-18T09:50:33;43.72;;;26.85;;
7080;SDS011;3582;51.506;11.948;2022-12-18T09:53:02;31.20;;;20.40;;
7080;SDS011;3582;51.506;11.948;2022-12-18T10:00:35;34.05;;;21.00;;
7080;SDS011;3582;51.506;11.948;2022-12-18T10:03:11;33.28;;;22.02;;
7080;SDS011;3582;51.506;11.948;2022-12-18T10:16:01;23.83;;;15.65;;
7080;SDS011;3582;51.506;11.948;2022-12-18T10:21:03;17.90;;;13.65;;
7080;SDS011;3582;51.506;11.948;2022-12-18T10:23:38;24.42;;;17.33;;
7080;SDS011;3582;51.506;11.948;2022-12-18T10:26:06;20.95;;;15.30;;
7080;SDS011;3582;51.506;11.948;2022-12-18T10:28:33;23.45;;;14.00;;
7080;SDS011;3582;51.506;11.948;2022-12-18T10:31:07;17.25;;;11.43;;
7080;SDS011;3582;51.506;11.948;2022-12-18T10:33:33;15.82;;;12.25;;
7080;SDS011;3582;51.506;11.948;2022-12-18T10:35:59;27.88;;;13.57;;
7080;SDS011;3582;51.506;11.948;2022-12-18T10:38:29;20.45;;;13.02;;
7080;SDS011;3582;51.506;11.948;2022-12-18T10:43:24;18.75;;;15.30;;
7080;SDS011;3582;51.506;11.948;2022-12-18T10:48:31;19.52;;;15.00;;
7080;SDS011;3582;51.506;11.948;2022-12-18T10:50:58;21.98;;;12.93;;
7080;SDS011;3582;51.506;11.948;2022-12-18T10:53:26;21.02;;;14.90;;
7080;SDS011;3582;51.506;11.948;2022-12-18T10:55:53;21.65;;;15.43;;
7080;SDS011;3582;51.506;11.948;2022-12-18T10:58:24;26.98;;;15.35;;
7080;SDS011;3582;51.506;11.948;2022-12-18T11:03:43;20.23;;;14.40;;
7080;SDS011;3582;51.506;11.948;2022-12-18T11:06:13;22.33;;;13.13;;
7080;SDS011;3582;51.506;11.948;2022-12-18T11:08:39;18.70;;;13.73;;
7080;SDS011;3582;51.506;11.948;2022-12-18T11:11:27;21.05;;;14.05;;
7080;SDS011;3582;51.506;11.948;2022-12-18T11:16:24;24.58;;;14.77;;
7080;SDS011;3582;51.506;11.948;2022-12-18T11:18:50;23.25;;;13.13;;
7080;SDS011;3582;51.506;11.948;2022-12-18T11:21:17;23.95;;;14.65;;
7080;SDS011;3582;51.506;11.948;2022-12-18T11:23:46;27.52;;;13.52;;
7080;SDS011;3582;51.506;11.948;2022-12-18T11:26:13;21.02;;;13.43;;
7080;SDS011;3582;51.506;11.948;2022-12-18T11:36:36;18.95;;;14.25;;
7080;SDS011;3582;51.506;11.948;2022-12-18T11:47:15;22.25;;;14.60;;
7080;SDS011;3582;51.506;11.948;2022-12-18T11:49:42;21.10;;;13.32;;
7080;SDS011;3582;51.506;11.948;2022-12-18T11:52:24;28.93;;;17.73;;
7080;SDS011;3582;51.506;11.948;2022-12-18T11:54:51;21.80;;;14.80;;
7080;SDS011;3582;51.506;11.948;2022-12-18T11:57:30;21.52;;;16.25;;
7080;SDS011;3582;51.506;11.948;2022-12-18T12:00:15;19.15;;;14.45;;
7080;SDS011;3582;51.506;11.948;2022-12-18T12:03:06;27.35;;;14.18;;
7080;SDS011;3582;51.506;11.948;2022-12-18T12:08:11;22.20;;;16.42;;
7080;SDS011;3582;51.506;11.948;2022-12-18T12:10:59;15.90;;;12.27;;
7080;SDS011;3582;51.506;11.948;2022-12-18T12:21:05;20.63;;;13.25;;
7080;SDS011;3582;51.506;11.948;2022-12-18T12:23:36;16.38;;;12.52;;
7080;SDS011;3582;51.506;11.948;2022-12-18T12:26:06;16.40;;;11.77;;
7080;SDS011;3582;51.506;11.948;2022-12-18T12:28:47;14.48;;;12.02;;
7080;SDS011;3582;51.506;11.948;2022-12-18T12:34:04;23.90;;;15.55;;
7080;SDS011;3582;51.506;11.948;2022-12-18T12:36:40;20.95;;;14.57;;
7080;SDS011;3582;51.506;11.948;2022-12-18T12:39:13;18.25;;;12.52;;
7080;SDS011;3582;51.506;11.948;2022-12-18T12:41:39;16.30;;;12.82;;
7080;SDS011;3582;51.506;11.948;2022-12-18T12:44:30;21.98;;;14.75;;
7080;SDS011;3582;51.506;11.948;2022-12-18T12:46:59;21.15;;;15.02;;
7080;SDS011;3582;51.506;11.948;2022-12-18T12:49:27;19.30;;;13.80;;
7080;SDS011;3582;51.506;11.948;2022-12-18T12:52:03;16.35;;;11.27;;
7080;SDS011;3582;51.506;11.948;2022-12-18T12:54:31;14.25;;;10.73;;
7080;SDS011;3582;51.506;11.948;2022-12-18T12:57:01;16.58;;;10.20;;
7080;SDS011;3582;51.506;11.948;2022-12-18T12:59:41;15.40;;;10.65;;
7080;SDS011;3582;51.506;11.948;2022-12-18T13:04:47;16.33;;;12.63;;
7080;SDS011;3582;51.506;11.948;2022-12-18T13:07:20;14.55;;;12.30;;
7080;SDS011;3582;51.506;11.948;2022-12-18T13:12:33;15.23;;;12.27;;
7080;SDS011;3582;51.506;11.948;2022-12-18T13:15:38;16.48;;;12.23;;
7080;SDS011;3582;51.506;11.948;2022-12-18T13:20:34;14.20;;;10.98;;
7080;SDS011;3582;51.506;11.948;2022-12-18T13:23:01;16.92;;;11.90;;
7080;SDS011;3582;51.506;11.948;2022-12-18T13:25:44;15.88;;;12.35;;
7080;SDS011;3582;51.506;11.948;2022-12-18T13:28:12;18.85;;;11.82;;
7080;SDS011;3582;51.506;11.948;2022-12-18T13:30:56;15.27;;;10.80;;
7080;SDS011;3582;51.506;11.948;2022-12-18T13:38:39;18.83;;;11.80;;
7080;SDS011;3582;51.506;11.948;2022-12-18T13:51:16;21.15;;;16.40;;
7080;SDS011;3582;51.506;11.948;2022-12-18T13:53:44;24.42;;;17.30;;
7080;SDS011;3582;51.506;11.948;2022-12-18T13:56:17;23.02;;;16.42;;
7080;SDS011;3582;51.506;11.948;2022-12-18T13:58:43;22.30;;;15.43;;
7080;SDS011;3582;51.506;11.948;2022-12-18T14:01:21;21.13;;;15.23;;
7080;SDS011;3582;51.506;11.948;2022-12-18T14:03:48;23.88;;;16.45;;
7080;SDS011;3582;51.506;11.948;2022-12-18T14:06:17;22.77;;;15.35;;
7080;SDS011;3582;51.506;11.948;2022-12-18T14:08:43;23.17;;;16.00;;
7080;SDS011;3582;51.506;11.948;2022-12-18T14:11:20;24.08;;;17.60;;
7080;SDS011;3582;51.506;11.948;2022-12-18T14:13:47;25.17;;;16.25;;
7080;SDS011;3582;51.506;11.948;2022-12-18T14:16:14;21.92;;;14.32;;
7080;SDS011;3582;51.506;11.948;2022-12-18T14:21:13;24.42;;;16.73;;
7080;SDS011;3582;51.506;11.948;2022-12-18T14:23:42;22.75;;;17.50;;
7080;SDS011;3582;51.506;11.948;2022-12-18T14:26:27;21.52;;;15.48;;
7080;SDS011;3582;51.506;11.948;2022-12-18T14:28:55;26.48;;;17.65;;
7080;SDS011;3582;51.506;11.948;2022-12-18T14:31:22;24.55;;;17.25;;
7080;SDS011;3582;51.506;11.948;2022-12-18T14:33:48;33.25;;;17.38;;
7080;SDS011;3582;51.506;11.948;2022-12-18T14:36:16;27.17;;;19.20;;
7080;SDS011;3582;51.506;11.948;2022-12-18T14:38:42;29.25;;;18.83;;
7080;SDS011;3582;51.506;11.948;2022-12-18T14:41:15;29.05;;;18.92;;
7080;SDS011;3582;51.506;11.948;2022-12-18T14:43:43;30.98;;;17.33;;
7080;SDS011;3582;51.506;11.948;2022-12-18T14:46:28;31.10;;;19.50;;
7080;SDS011;3582;51.506;11.948;2022-12-18T14:48:55;31.90;;;19.73;;
7080;SDS011;3582;51.506;11.948;2022-12-18T14:51:23;26.20;;;18.65;;
7080;SDS011;3582;51.506;11.948;2022-12-18T14:53:56;52.75;;;30.70;;
7080;SDS011;3582;51.506;11.948;2022-12-18T14:56:26;28.08;;;21.65;;
7080;SDS011;3582;51.506;11.948;2022-12-18T14:58:54;25.67;;;18.13;;
7080;SDS011;3582;51.506;11.948;2022-12-18T15:01:21;26.67;;;18.27;;
7080;SDS011;3582;51.506;11.948;2022-12-18T15:03:49;25.58;;;19.13;;
7080;SDS011;3582;51.506;11.948;2022-12-18T15:06:15;36.63;;;19.95;;
7080;SDS011;3582;51.506;11.948;2022-12-18T15:08:43;25.92;;;20.77;;
7080;SDS011;3582;51.506;11.948;2022-12-18T15:11:25;24.48;;;18.35;;
7080;SDS011;3582;51.506;11.948;2022-12-18T15:13:51;34.22;;;19.00;;
7080;SDS011;3582;51.506;11.948;2022-12-18T15:16:17;29.60;;;20.00;;
7080;SDS011;3582;51.506;11.948;2022-12-18T15:18:43;29.83;;;20.50;;
7080;SDS011;3582;51.506;11.948;2022-12-18T15:21:11;29.63;;;19.42;;
7080;SDS011;3582;51.506;11.948;2022-12-18T15:23:47;28.08;;;18.80;;
7080;SDS011;3582;51.506;11.948;2022-12-18T15:26:15;30.45;;;20.65;;
7080;SDS011;3582;51.506;11.948;2022-12-18T15:28:54;31.08;;;20.08;;
7080;SDS011;3582;51.506;11.948;2022-12-18T15:31:22;30.02;;;21.17;;
7080;SDS011;3582;51.506;11.948;2022-12-18T15:36:18;33.58;;;20.42;;
7080;SDS011;3582;51.506;11.948;2022-12-18T15:38:48;29.05;;;19.30;;
7080;SDS011;3582;51.506;11.948;2022-12-18T15:41:15;30.75;;;18.13;;
7080;SDS011;3582;51.506;11.948;2022-12-18T15:43:41;31.05;;;20.25;;
7080;SDS011;3582;51.506;11.948;2022-12-18T15:46:11;37.10;;;21.58;;
7080;SDS011;3582;51.506;11.948;2022-12-18T15:48:56;36.45;;;23.15;;
7080;SDS011;3582;51.506;11.948;2022-12-18T15:51:31;34.08;;;21.42;;
7080;SDS011;3582;51.506;11.948;2022-12-18T15:53:58;32.03;;;21.50;;
7080;SDS011;3582;51.506;11.948;2022-12-18T15:56:25;36.38;;;22.50;;
7080;SDS011;3582;51.506;11.948;2022-12-18T15:59:10;34.78;;;20.90;;
7080;SDS011;3582;51.506;11.948;2022-12-18T16:01:37;31.88;;;22.98;;
7080;SDS011;3582;51.506;11.948;2022-12-18T16:04:03;29.20;;;20.60;;
7080;SDS011;3582;51.506;11.948;2022-12-18T16:06:29;36.03;;;21.23;;
7080;SDS011;3582;51.506;11.948;2022-12-18T16:08:55;32.53;;;21.30;;
7080;SDS011;3582;51.506;11.948;2022-12-18T16:11:25;36.30;;;24.83;;
7080;SDS011;3582;51.506;11.948;2022-12-18T16:14:20;38.65;;;24.33;;
7080;SDS011;3582;51.506;11.948;2022-12-18T16:16:47;41.10;;;23.92;;
7080;SDS011;3582;51.506;11.948;2022-12-18T16:19:13;38.92;;;25.63;;
7080;SDS011;3582;51.506;11.948;2022-12-18T16:21:39;34.95;;;24.27;;
7080;SDS011;3582;51.506;11.948;2022-12-18T16:24:08;40.75;;;22.92;;
7080;SDS011;3582;51.506;11.948;2022-12-18T16:26:35;38.30;;;23.35;;
7080;SDS011;3582;51.506;11.948;2022-12-18T16:29:01;38.73;;;26.10;;
7080;SDS011;3582;51.506;11.948;2022-12-18T16:31:27;38.03;;;24.48;;
7080;SDS011;3582;51.506;11.948;2022-12-18T16:36:38;41.33;;;27.15;;
7080;SDS011;3582;51.506;11.948;2022-12-18T16:39:04;40.00;;;25.48;;